sensor_id;sensor_type;location;lat;lon;timestamp;P1;durP1;ratioP1;P2;durP2;ratioP2
9918;SDS011;4998;51.024;13.828;2023-09-18T00:01:06;3.53;;;3.13;;
9918;SDS011;4998;51.024;13.828;2023-09-18T00:03:33;3.27;;;3.00;;
9918;SDS011;4998;51.024;13.828;2023-09-18T00:06:00;3.00;;;2.80;;
9918;SDS011;4998;51.024;13.828;2023-09-18T00:08:27;3.60;;;3.30;;
9918;SDS011;4998;51.024;13.828;2023-09-18T00:10:56;3.10;;;2.90;;
9918;SDS011;4998;51.024;13.828;2023-09-18T00:13:25;3.50;;;3.10;;
9918;SDS011;4998;51.024;13.828;2023-09-18T00:15:54;3.30;;;3.10;;
9918;SDS011;4998;51.024;13.828;2023-09-18T00:18:24;5.07;;;3.17;;
9918;SDS011;4998;51.024;13.828;2023-09-18T00:20:51;3.60;;;3.30;;
9918;SDS011;4998;51.024;13.828;2023-09-18T00:23:19;3.73;;;3.40;;
9918;SDS011;4998;51.024;13.828;2023-09-18T00:25:46;3.33;;;3.13;;
9918;SDS011;4998;51.024;13.828;2023-09-18T00:28:14;3.63;;;3.30;;
9918;SDS011;4998;51.024;13.828;2023-09-18T00:30:42;3.33;;;3.13;;
9918;SDS011;4998;51.024;13.828;2023-09-18T00:33:13;3.30;;;3.00;;
9918;SDS011;4998;51.024;13.828;2023-09-18T00:35:44;7.00;;;3.37;;
9918;SDS011;4998;51.024;13.828;2023-09-18T00:38:12;3.60;;;3.30;;
9918;SDS011;4998;51.024;13.828;2023-09-18T00:40:39;3.40;;;3.10;;
9918;SDS011;4998;51.024;13.828;2023-09-18T00:43:06;3.50;;;3.30;;
9918;SDS011;4998;51.024;13.828;2023-09-18T00:45:36;3.37;;;3.07;;
9918;SDS011;4998;51.024;13.828;2023-09-18T00:48:06;3.70;;;3.40;;
9918;SDS011;4998;51.024;13.828;2023-09-18T00:50:34;3.60;;;3.30;;
9918;SDS011;4998;51.024;13.828;2023-09-18T00:53:02;4.03;;;3.57;;
9918;SDS011;4998;51.024;13.828;2023-09-18T00:55:29;3.80;;;3.50;;
9918;SDS011;4998;51.024;13.828;2023-09-18T00:57:57;3.27;;;3.07;;
9918;SDS011;4998;51.024;13.828;2023-09-18T01:00:24;3.00;;;2.80;;
9918;SDS011;4998;51.024;13.828;2023-09-18T01:02:53;3.80;;;3.20;;
9918;SDS011;4998;51.024;13.828;2023-09-18T01:05:20;3.33;;;3.10;;
9918;SDS011;4998;51.024;13.828;2023-09-18T01:07:47;3.40;;;3.10;;
9918;SDS011;4998;51.024;13.828;2023-09-18T01:10:14;3.80;;;3.50;;
9918;SDS011;4998;51.024;13.828;2023-09-18T01:12:44;3.80;;;3.47;;
9918;SDS011;4998;51.024;13.828;2023-09-18T01:15:16;3.43;;;3.13;;
9918;SDS011;4998;51.024;13.828;2023-09-18T01:17:48;4.00;;;3.70;;
9918;SDS011;4998;51.024;13.828;2023-09-18T01:20:17;3.50;;;3.23;;
9918;SDS011;4998;51.024;13.828;2023-09-18T01:22:45;3.37;;;3.17;;
9918;SDS011;4998;51.024;13.828;2023-09-18T01:25:14;3.70;;;3.40;;
9918;SDS011;4998;51.024;13.828;2023-09-18T01:27:41;3.10;;;2.90;;
9918;SDS011;4998;51.024;13.828;2023-09-18T01:30:09;3.77;;;3.40;;
9918;SDS011;4998;51.024;13.828;2023-09-18T01:32:37;3.57;;;3.27;;
9918;SDS011;4998;51.024;13.828;2023-09-18T01:35:05;3.70;;;3.40;;
9918;SDS011;4998;51.024;13.828;2023-09-18T01:37:34;3.40;;;3.20;;
9918;SDS011;4998;51.024;13.828;2023-09-18T01:40:05;4.47;;;3.40;;
9918;SDS011;4998;51.024;13.828;2023-09-18T01:42:33;3.70;;;3.40;;
9918;SDS011;4998;51.024;13.828;2023-09-18T01:45:01;3.50;;;3.30;;
9918;SDS011;4998;51.024;13.828;2023-09-18T01:47:30;3.70;;;3.40;;
9918;SDS011;4998;51.024;13.828;2023-09-18T01:49:57;4.03;;;3.60;;
9918;SDS011;4998;51.024;13.828;2023-09-18T01:52:24;3.43;;;3.23;;
9918;SDS011;4998;51.024;13.828;2023-09-18T01:54:51;5.00;;;3.57;;
9918;SDS011;4998;51.024;13.828;2023-09-18T01:57:19;6.93;;;4.53;;
9918;SDS011;4998;51.024;13.828;2023-09-18T01:59:46;4.20;;;3.37;;
9918;SDS011;4998;51.024;13.828;2023-09-18T02:02:13;3.80;;;3.50;;
9918;SDS011;4998;51.024;13.828;2023-09-18T02:04:41;3.83;;;3.40;;
9918;SDS011;4998;51.024;13.828;2023-09-18T02:07:08;3.93;;;3.60;;
9918;SDS011;4998;51.024;13.828;2023-09-18T02:09:35;3.43;;;3.10;;
9918;SDS011;4998;51.024;13.828;2023-09-18T02:12:03;4.70;;;3.80;;
9918;SDS011;4998;51.024;13.828;2023-09-18T02:14:32;4.10;;;3.80;;
9918;SDS011;4998;51.024;13.828;2023-09-18T02:16:59;3.73;;;3.50;;
9918;SDS011;4998;51.024;13.828;2023-09-18T02:19:26;3.53;;;3.30;;
9918;SDS011;4998;51.024;13.828;2023-09-18T02:21:55;4.23;;;3.90;;
9918;SDS011;4998;51.024;13.828;2023-09-18T02:24:23;4.00;;;3.70;;
9918;SDS011;4998;51.024;13.828;2023-09-18T02:26:50;4.93;;;3.70;;
9918;SDS011;4998;51.024;13.828;2023-09-18T02:29:17;4.60;;;3.60;;
9918;SDS011;4998;51.024;13.828;2023-09-18T02:31:45;4.00;;;3.70;;
9918;SDS011;4998;51.024;13.828;2023-09-18T02:34:12;3.77;;;3.47;;
9918;SDS011;4998;51.024;13.828;2023-09-18T02:36:39;3.60;;;3.30;;
9918;SDS011;4998;51.024;13.828;2023-09-18T02:39:06;3.57;;;3.27;;
9918;SDS011;4998;51.024;13.828;2023-09-18T02:41:33;4.17;;;3.80;;
9918;SDS011;4998;51.024;13.828;2023-09-18T02:44:00;3.47;;;3.17;;
9918;SDS011;4998;51.024;13.828;2023-09-18T02:46:27;3.67;;;3.43;;
9918;SDS011;4998;51.024;13.828;2023-09-18T02:48:56;3.50;;;3.30;;
9918;SDS011;4998;51.024;13.828;2023-09-18T02:51:23;4.07;;;3.40;;
9918;SDS011;4998;51.024;13.828;2023-09-18T02:53:50;4.00;;;3.60;;
9918;SDS011;4998;51.024;13.828;2023-09-18T02:56:17;4.23;;;3.87;;
9918;SDS011;4998;51.024;13.828;2023-09-18T02:58:44;3.77;;;3.47;;
9918;SDS011;4998;51.024;13.828;2023-09-18T03:01:11;4.20;;;3.80;;
9918;SDS011;4998;51.024;13.828;2023-09-18T03:03:38;6.60;;;3.53;;
9918;SDS011;4998;51.024;13.828;2023-09-18T03:06:08;3.80;;;3.50;;
9918;SDS011;4998;51.024;13.828;2023-09-18T03:08:35;3.50;;;3.30;;
9918;SDS011;4998;51.024;13.828;2023-09-18T03:11:02;3.97;;;3.63;;
9918;SDS011;4998;51.024;13.828;2023-09-18T03:13:30;3.70;;;3.40;;
9918;SDS011;4998;51.024;13.828;2023-09-18T03:15:57;4.03;;;3.70;;
9918;SDS011;4998;51.024;13.828;2023-09-18T03:18:24;4.00;;;3.70;;
9918;SDS011;4998;51.024;13.828;2023-09-18T03:20:51;3.33;;;3.03;;
9918;SDS011;4998;51.024;13.828;2023-09-18T03:23:19;4.30;;;3.83;;
9918;SDS011;4998;51.024;13.828;2023-09-18T03:25:47;3.57;;;3.30;;
9918;SDS011;4998;51.024;13.828;2023-09-18T03:28:14;4.30;;;3.90;;
9918;SDS011;4998;51.024;13.828;2023-09-18T03:30:41;3.70;;;3.40;;
9918;SDS011;4998;51.024;13.828;2023-09-18T03:33:08;4.20;;;3.80;;
9918;SDS011;4998;51.024;13.828;2023-09-18T03:35:44;3.80;;;3.50;;
9918;SDS011;4998;51.024;13.828;2023-09-18T03:38:12;3.47;;;3.17;;
9918;SDS011;4998;51.024;13.828;2023-09-18T03:40:41;3.97;;;3.67;;
9918;SDS011;4998;51.024;13.828;2023-09-18T03:43:08;3.90;;;3.60;;
9918;SDS011;4998;51.024;13.828;2023-09-18T03:45:37;4.27;;;3.97;;
9918;SDS011;4998;51.024;13.828;2023-09-18T03:48:06;3.70;;;3.40;;
9918;SDS011;4998;51.024;13.828;2023-09-18T03:50:33;4.10;;;3.70;;
9918;SDS011;4998;51.024;13.828;2023-09-18T03:53:00;3.77;;;3.47;;
9918;SDS011;4998;51.024;13.828;2023-09-18T03:55:27;4.23;;;3.93;;
9918;SDS011;4998;51.024;13.828;2023-09-18T03:57:56;4.03;;;3.73;;
9918;SDS011;4998;51.024;13.828;2023-09-18T04:00:23;3.73;;;3.43;;
9918;SDS011;4998;51.024;13.828;2023-09-18T04:02:50;3.73;;;3.47;;
9918;SDS011;4998;51.024;13.828;2023-09-18T04:05:17;3.77;;;3.47;;
9918;SDS011;4998;51.024;13.828;2023-09-18T04:07:44;6.03;;;3.87;;
9918;SDS011;4998;51.024;13.828;2023-09-18T04:10:12;4.07;;;3.70;;
9918;SDS011;4998;51.024;13.828;2023-09-18T04:12:44;4.00;;;3.70;;
9918;SDS011;4998;51.024;13.828;2023-09-18T04:15:14;4.37;;;4.07;;
9918;SDS011;4998;51.024;13.828;2023-09-18T04:17:42;3.90;;;3.60;;
9918;SDS011;4998;51.024;13.828;2023-09-18T04:20:10;4.40;;;4.00;;
9918;SDS011;4998;51.024;13.828;2023-09-18T04:22:46;4.07;;;3.77;;
9918;SDS011;4998;51.024;13.828;2023-09-18T04:25:14;4.83;;;4.00;;
9918;SDS011;4998;51.024;13.828;2023-09-18T04:27:42;4.20;;;3.90;;
9918;SDS011;4998;51.024;13.828;2023-09-18T04:30:09;4.53;;;4.10;;
9918;SDS011;4998;51.024;13.828;2023-09-18T04:32:38;3.67;;;3.47;;
9918;SDS011;4998;51.024;13.828;2023-09-18T04:35:06;5.10;;;3.97;;
9918;SDS011;4998;51.024;13.828;2023-09-18T04:37:35;4.50;;;4.10;;
9918;SDS011;4998;51.024;13.828;2023-09-18T04:40:04;5.27;;;3.63;;
9918;SDS011;4998;51.024;13.828;2023-09-18T04:42:34;4.60;;;3.73;;
9918;SDS011;4998;51.024;13.828;2023-09-18T04:45:02;4.93;;;4.53;;
9918;SDS011;4998;51.024;13.828;2023-09-18T04:47:30;3.70;;;3.40;;
9918;SDS011;4998;51.024;13.828;2023-09-18T04:49:58;4.50;;;4.10;;
9918;SDS011;4998;51.024;13.828;2023-09-18T04:52:25;4.30;;;4.00;;
9918;SDS011;4998;51.024;13.828;2023-09-18T04:54:52;4.70;;;4.30;;
9918;SDS011;4998;51.024;13.828;2023-09-18T04:57:22;4.10;;;3.80;;
9918;SDS011;4998;51.024;13.828;2023-09-18T04:59:49;4.13;;;3.73;;
9918;SDS011;4998;51.024;13.828;2023-09-18T05:02:16;6.90;;;5.07;;
9918;SDS011;4998;51.024;13.828;2023-09-18T05:04:43;5.00;;;4.50;;
9918;SDS011;4998;51.024;13.828;2023-09-18T05:07:12;4.73;;;4.33;;
9918;SDS011;4998;51.024;13.828;2023-09-18T05:09:39;4.43;;;4.03;;
9918;SDS011;4998;51.024;13.828;2023-09-18T05:12:06;6.43;;;3.90;;
9918;SDS011;4998;51.024;13.828;2023-09-18T05:14:38;4.80;;;4.40;;
9918;SDS011;4998;51.024;13.828;2023-09-18T05:17:06;4.63;;;4.23;;
9918;SDS011;4998;51.024;13.828;2023-09-18T05:19:36;4.60;;;4.20;;
9918;SDS011;4998;51.024;13.828;2023-09-18T05:22:03;4.77;;;4.37;;
9918;SDS011;4998;51.024;13.828;2023-09-18T05:24:31;3.97;;;3.70;;
9918;SDS011;4998;51.024;13.828;2023-09-18T05:26:58;4.33;;;4.03;;
9918;SDS011;4998;51.024;13.828;2023-09-18T05:29:25;4.67;;;4.37;;
9918;SDS011;4998;51.024;13.828;2023-09-18T05:31:52;4.60;;;4.20;;
9918;SDS011;4998;51.024;13.828;2023-09-18T05:34:19;4.10;;;3.77;;
9918;SDS011;4998;51.024;13.828;2023-09-18T05:36:46;4.60;;;4.20;;
9918;SDS011;4998;51.024;13.828;2023-09-18T05:39:13;4.97;;;4.23;;
9918;SDS011;4998;51.024;13.828;2023-09-18T05:41:42;4.87;;;4.40;;
9918;SDS011;4998;51.024;13.828;2023-09-18T05:44:09;4.27;;;3.87;;
9918;SDS011;4998;51.024;13.828;2023-09-18T05:46:36;4.60;;;4.20;;
9918;SDS011;4998;51.024;13.828;2023-09-18T05:49:03;4.47;;;4.07;;
9918;SDS011;4998;51.024;13.828;2023-09-18T05:51:30;4.10;;;3.80;;
9918;SDS011;4998;51.024;13.828;2023-09-18T05:53:57;4.23;;;3.83;;
9918;SDS011;4998;51.024;13.828;2023-09-18T05:56:25;5.20;;;4.20;;
9918;SDS011;4998;51.024;13.828;2023-09-18T05:58:53;5.23;;;4.63;;
9918;SDS011;4998;51.024;13.828;2023-09-18T06:01:21;4.37;;;4.00;;
9918;SDS011;4998;51.024;13.828;2023-09-18T06:03:48;4.67;;;4.10;;
9918;SDS011;4998;51.024;13.828;2023-09-18T06:06:15;5.60;;;4.10;;
9918;SDS011;4998;51.024;13.828;2023-09-18T06:08:42;4.20;;;3.90;;
9918;SDS011;4998;51.024;13.828;2023-09-18T06:11:09;4.43;;;4.13;;
9918;SDS011;4998;51.024;13.828;2023-09-18T06:13:36;4.37;;;4.03;;
9918;SDS011;4998;51.024;13.828;2023-09-18T06:16:04;3.90;;;3.70;;
9918;SDS011;4998;51.024;13.828;2023-09-18T06:18:33;4.97;;;4.20;;
9918;SDS011;4998;51.024;13.828;2023-09-18T06:21:03;5.97;;;3.97;;
9918;SDS011;4998;51.024;13.828;2023-09-18T06:23:30;4.37;;;3.97;;
9918;SDS011;4998;51.024;13.828;2023-09-18T06:25:57;4.50;;;4.10;;
9918;SDS011;4998;51.024;13.828;2023-09-18T06:28:25;4.60;;;4.20;;
9918;SDS011;4998;51.024;13.828;2023-09-18T06:30:52;5.07;;;3.90;;
9918;SDS011;4998;51.024;13.828;2023-09-18T06:33:20;4.20;;;3.90;;
9918;SDS011;4998;51.024;13.828;2023-09-18T06:35:47;4.50;;;4.20;;
9918;SDS011;4998;51.024;13.828;2023-09-18T06:38:14;4.40;;;4.00;;
9918;SDS011;4998;51.024;13.828;2023-09-18T06:40:41;4.57;;;4.27;;
9918;SDS011;4998;51.024;13.828;2023-09-18T06:43:08;4.43;;;4.13;;
9918;SDS011;4998;51.024;13.828;2023-09-18T06:45:35;4.50;;;4.10;;
9918;SDS011;4998;51.024;13.828;2023-09-18T06:48:03;4.73;;;4.33;;
9918;SDS011;4998;51.024;13.828;2023-09-18T06:53:01;5.00;;;4.57;;
9918;SDS011;4998;51.024;13.828;2023-09-18T06:55:28;4.13;;;3.83;;
9918;SDS011;4998;51.024;13.828;2023-09-18T06:57:55;4.80;;;4.40;;
9918;SDS011;4998;51.024;13.828;2023-09-18T07:00:22;5.13;;;4.63;;
9918;SDS011;4998;51.024;13.828;2023-09-18T07:02:50;4.10;;;3.80;;
9918;SDS011;4998;51.024;13.828;2023-09-18T07:05:18;4.73;;;4.33;;
9918;SDS011;4998;51.024;13.828;2023-09-18T07:07:46;4.23;;;3.90;;
9918;SDS011;4998;51.024;13.828;2023-09-18T07:10:13;4.50;;;4.10;;
9918;SDS011;4998;51.024;13.828;2023-09-18T07:12:40;4.70;;;4.40;;
9918;SDS011;4998;51.024;13.828;2023-09-18T07:15:07;4.77;;;4.47;;
9918;SDS011;4998;51.024;13.828;2023-09-18T07:17:36;4.70;;;4.30;;
9918;SDS011;4998;51.024;13.828;2023-09-18T07:20:03;4.20;;;3.90;;
9918;SDS011;4998;51.024;13.828;2023-09-18T07:22:38;4.30;;;4.00;;
9918;SDS011;4998;51.024;13.828;2023-09-18T07:25:07;5.00;;;4.50;;
9918;SDS011;4998;51.024;13.828;2023-09-18T07:27:34;4.40;;;4.00;;
9918;SDS011;4998;51.024;13.828;2023-09-18T07:30:04;4.40;;;4.10;;
9918;SDS011;4998;51.024;13.828;2023-09-18T07:32:32;4.77;;;4.37;;
9918;SDS011;4998;51.024;13.828;2023-09-18T07:34:59;5.00;;;4.47;;
9918;SDS011;4998;51.024;13.828;2023-09-18T07:37:26;8.00;;;4.20;;
9918;SDS011;4998;51.024;13.828;2023-09-18T07:39:53;4.53;;;4.23;;
9918;SDS011;4998;51.024;13.828;2023-09-18T07:42:23;4.70;;;4.33;;
9918;SDS011;4998;51.024;13.828;2023-09-18T07:44:51;5.60;;;4.13;;
9918;SDS011;4998;51.024;13.828;2023-09-18T07:47:17;4.30;;;4.00;;
9918;SDS011;4998;51.024;13.828;2023-09-18T07:49:45;5.00;;;4.33;;
9918;SDS011;4998;51.024;13.828;2023-09-18T07:52:12;5.13;;;4.50;;
9918;SDS011;4998;51.024;13.828;2023-09-18T07:54:39;5.40;;;4.90;;
9918;SDS011;4998;51.024;13.828;2023-09-18T07:57:06;5.43;;;4.83;;
9918;SDS011;4998;51.024;13.828;2023-09-18T07:59:36;4.90;;;4.50;;
9918;SDS011;4998;51.024;13.828;2023-09-18T08:02:04;4.97;;;4.57;;
9918;SDS011;4998;51.024;13.828;2023-09-18T08:04:31;4.43;;;4.13;;
9918;SDS011;4998;51.024;13.828;2023-09-18T08:06:58;4.40;;;4.10;;
9918;SDS011;4998;51.024;13.828;2023-09-18T08:09:25;4.70;;;4.30;;
9918;SDS011;4998;51.024;13.828;2023-09-18T08:11:54;7.53;;;5.57;;
9918;SDS011;4998;51.024;13.828;2023-09-18T08:14:22;6.10;;;4.33;;
9918;SDS011;4998;51.024;13.828;2023-09-18T08:16:56;4.60;;;3.77;;
9918;SDS011;4998;51.024;13.828;2023-09-18T08:19:25;4.50;;;4.10;;
9918;SDS011;4998;51.024;13.828;2023-09-18T08:21:52;4.53;;;4.00;;
9918;SDS011;4998;51.024;13.828;2023-09-18T08:24:21;8.03;;;3.63;;
9918;SDS011;4998;51.024;13.828;2023-09-18T08:26:48;4.03;;;3.70;;
9918;SDS011;4998;51.024;13.828;2023-09-18T08:29:15;3.87;;;3.57;;
9918;SDS011;4998;51.024;13.828;2023-09-18T08:31:42;7.90;;;4.00;;
9918;SDS011;4998;51.024;13.828;2023-09-18T08:34:11;5.10;;;3.60;;
9918;SDS011;4998;51.024;13.828;2023-09-18T08:36:38;3.97;;;3.67;;
9918;SDS011;4998;51.024;13.828;2023-09-18T08:39:05;3.70;;;3.40;;
9918;SDS011;4998;51.024;13.828;2023-09-18T08:41:32;4.37;;;3.97;;
9918;SDS011;4998;51.024;13.828;2023-09-18T08:44:04;4.17;;;3.77;;
9918;SDS011;4998;51.024;13.828;2023-09-18T08:46:35;4.27;;;3.60;;
9918;SDS011;4998;51.024;13.828;2023-09-18T08:49:03;4.03;;;3.73;;
9918;SDS011;4998;51.024;13.828;2023-09-18T08:51:32;4.00;;;3.70;;
9918;SDS011;4998;51.024;13.828;2023-09-18T08:54:00;3.73;;;3.43;;
9918;SDS011;4998;51.024;13.828;2023-09-18T08:56:29;3.93;;;3.53;;
9918;SDS011;4998;51.024;13.828;2023-09-18T08:58:57;4.17;;;3.83;;
9918;SDS011;4998;51.024;13.828;2023-09-18T09:01:25;3.60;;;3.30;;
9918;SDS011;4998;51.024;13.828;2023-09-18T09:03:52;4.10;;;3.70;;
9918;SDS011;4998;51.024;13.828;2023-09-18T09:06:19;3.53;;;3.33;;
9918;SDS011;4998;51.024;13.828;2023-09-18T09:08:49;4.17;;;3.87;;
9918;SDS011;4998;51.024;13.828;2023-09-18T09:11:16;3.93;;;3.57;;
9918;SDS011;4998;51.024;13.828;2023-09-18T09:13:44;3.77;;;3.47;;
9918;SDS011;4998;51.024;13.828;2023-09-18T09:16:12;3.70;;;3.40;;
9918;SDS011;4998;51.024;13.828;2023-09-18T09:18:47;3.80;;;3.50;;
9918;SDS011;4998;51.024;13.828;2023-09-18T09:21:15;4.70;;;3.30;;
9918;SDS011;4998;51.024;13.828;2023-09-18T09:23:44;3.63;;;3.03;;
9918;SDS011;4998;51.024;13.828;2023-09-18T09:26:15;3.27;;;3.07;;
9918;SDS011;4998;51.024;13.828;2023-09-18T09:28:43;3.60;;;3.30;;
9918;SDS011;4998;51.024;13.828;2023-09-18T09:31:10;3.70;;;3.37;;
9918;SDS011;4998;51.024;13.828;2023-09-18T09:33:40;4.63;;;3.23;;
9918;SDS011;4998;51.024;13.828;2023-09-18T09:36:18;5.40;;;2.87;;
9918;SDS011;4998;51.024;13.828;2023-09-18T09:38:45;2.93;;;2.73;;
9918;SDS011;4998;51.024;13.828;2023-09-18T09:41:13;3.30;;;3.10;;
9918;SDS011;4998;51.024;13.828;2023-09-18T09:43:42;3.83;;;2.97;;
9918;SDS011;4998;51.024;13.828;2023-09-18T09:46:14;3.10;;;2.90;;
9918;SDS011;4998;51.024;13.828;2023-09-18T09:48:57;3.30;;;3.10;;
9918;SDS011;4998;51.024;13.828;2023-09-18T09:51:26;3.40;;;3.07;;
9918;SDS011;4998;51.024;13.828;2023-09-18T09:53:53;3.20;;;3.00;;
9918;SDS011;4998;51.024;13.828;2023-09-18T09:56:23;3.10;;;2.80;;
9918;SDS011;4998;51.024;13.828;2023-09-18T09:59:08;3.40;;;3.10;;
9918;SDS011;4998;51.024;13.828;2023-09-18T10:01:37;2.83;;;2.63;;
9918;SDS011;4998;51.024;13.828;2023-09-18T10:04:09;5.33;;;3.00;;
9918;SDS011;4998;51.024;13.828;2023-09-18T10:06:38;3.23;;;2.93;;
9918;SDS011;4998;51.024;13.828;2023-09-18T10:09:08;3.00;;;2.80;;
9918;SDS011;4998;51.024;13.828;2023-09-18T10:11:38;12.20;;;2.90;;
9918;SDS011;4998;51.024;13.828;2023-09-18T10:14:12;5.80;;;3.30;;
9918;SDS011;4998;51.024;13.828;2023-09-18T10:16:44;2.93;;;2.73;;
9918;SDS011;4998;51.024;13.828;2023-09-18T10:19:21;3.40;;;3.10;;
9918;SDS011;4998;51.024;13.828;2023-09-18T10:21:57;3.10;;;2.90;;
9918;SDS011;4998;51.024;13.828;2023-09-18T10:24:36;3.13;;;2.80;;
9918;SDS011;4998;51.024;13.828;2023-09-18T10:27:06;3.30;;;3.10;;
9918;SDS011;4998;51.024;13.828;2023-09-18T10:29:36;3.30;;;3.10;;
9918;SDS011;4998;51.024;13.828;2023-09-18T10:32:04;3.13;;;2.93;;
9918;SDS011;4998;51.024;13.828;2023-09-18T10:34:33;3.13;;;2.93;;
9918;SDS011;4998;51.024;13.828;2023-09-18T10:37:01;3.47;;;3.17;;
9918;SDS011;4998;51.024;13.828;2023-09-18T10:39:31;3.10;;;2.90;;
9918;SDS011;4998;51.024;13.828;2023-09-18T10:42:02;3.10;;;2.83;;
9918;SDS011;4998;51.024;13.828;2023-09-18T10:44:31;3.20;;;3.00;;
9918;SDS011;4998;51.024;13.828;2023-09-18T10:47:00;3.30;;;3.00;;
9918;SDS011;4998;51.024;13.828;2023-09-18T10:49:30;3.30;;;3.00;;
9918;SDS011;4998;51.024;13.828;2023-09-18T10:51:58;3.60;;;3.30;;
9918;SDS011;4998;51.024;13.828;2023-09-18T10:54:26;4.90;;;3.37;;
9918;SDS011;4998;51.024;13.828;2023-09-18T10:56:55;3.40;;;3.20;;
9918;SDS011;4998;51.024;13.828;2023-09-18T10:59:23;4.60;;;3.30;;
9918;SDS011;4998;51.024;13.828;2023-09-18T11:01:50;3.47;;;2.90;;
9918;SDS011;4998;51.024;13.828;2023-09-18T11:04:20;3.40;;;3.10;;
9918;SDS011;4998;51.024;13.828;2023-09-18T11:07:03;3.97;;;3.67;;
9918;SDS011;4998;51.024;13.828;2023-09-18T11:09:41;4.00;;;3.70;;
9918;SDS011;4998;51.024;13.828;2023-09-18T11:12:09;3.60;;;3.30;;
9918;SDS011;4998;51.024;13.828;2023-09-18T11:14:41;3.60;;;3.30;;
9918;SDS011;4998;51.024;13.828;2023-09-18T11:17:30;3.93;;;3.00;;
9918;SDS011;4998;51.024;13.828;2023-09-18T11:20:07;3.40;;;3.10;;
9918;SDS011;4998;51.024;13.828;2023-09-18T11:22:37;4.13;;;3.03;;
9918;SDS011;4998;51.024;13.828;2023-09-18T11:28:03;2.90;;;2.70;;
9918;SDS011;4998;51.024;13.828;2023-09-18T11:30:32;3.47;;;3.20;;
9918;SDS011;4998;51.024;13.828;2023-09-18T11:33:01;3.30;;;3.10;;
9918;SDS011;4998;51.024;13.828;2023-09-18T11:35:30;3.73;;;3.07;;
9918;SDS011;4998;51.024;13.828;2023-09-18T11:38:04;4.00;;;3.70;;
9918;SDS011;4998;51.024;13.828;2023-09-18T11:40:32;3.80;;;3.50;;
9918;SDS011;4998;51.024;13.828;2023-09-18T11:45:50;4.00;;;3.20;;
9918;SDS011;4998;51.024;13.828;2023-09-18T11:48:19;3.30;;;3.07;;
9918;SDS011;4998;51.024;13.828;2023-09-18T11:50:51;3.90;;;3.60;;
9918;SDS011;4998;51.024;13.828;2023-09-18T11:53:19;3.30;;;3.10;;
9918;SDS011;4998;51.024;13.828;2023-09-18T11:55:47;3.83;;;3.53;;
9918;SDS011;4998;51.024;13.828;2023-09-18T11:58:14;3.53;;;3.33;;
9918;SDS011;4998;51.024;13.828;2023-09-18T12:00:41;3.37;;;3.13;;
9918;SDS011;4998;51.024;13.828;2023-09-18T12:03:15;5.07;;;3.40;;
9918;SDS011;4998;51.024;13.828;2023-09-18T12:05:52;3.73;;;3.43;;
9918;SDS011;4998;51.024;13.828;2023-09-18T12:08:21;4.40;;;3.20;;
9918;SDS011;4998;51.024;13.828;2023-09-18T12:10:51;4.37;;;3.97;;
9918;SDS011;4998;51.024;13.828;2023-09-18T12:13:19;4.37;;;3.50;;
9918;SDS011;4998;51.024;13.828;2023-09-18T12:15:46;3.93;;;3.63;;
9918;SDS011;4998;51.024;13.828;2023-09-18T12:18:14;3.83;;;3.53;;
9918;SDS011;4998;51.024;13.828;2023-09-18T12:20:46;4.50;;;3.53;;
9918;SDS011;4998;51.024;13.828;2023-09-18T12:23:15;3.67;;;3.47;;
9918;SDS011;4998;51.024;13.828;2023-09-18T12:25:44;4.43;;;3.70;;
9918;SDS011;4998;51.024;13.828;2023-09-18T12:28:14;3.57;;;3.27;;
9918;SDS011;4998;51.024;13.828;2023-09-18T12:30:41;4.10;;;3.70;;
9918;SDS011;4998;51.024;13.828;2023-09-18T12:33:11;3.73;;;3.50;;
9918;SDS011;4998;51.024;13.828;2023-09-18T12:35:40;3.73;;;3.43;;
9918;SDS011;4998;51.024;13.828;2023-09-18T12:38:13;3.70;;;3.40;;
9918;SDS011;4998;51.024;13.828;2023-09-18T12:40:42;5.00;;;3.50;;
9918;SDS011;4998;51.024;13.828;2023-09-18T12:43:11;4.83;;;3.47;;
9918;SDS011;4998;51.024;13.828;2023-09-18T12:45:40;4.00;;;3.70;;
9918;SDS011;4998;51.024;13.828;2023-09-18T12:48:08;3.90;;;3.60;;
9918;SDS011;4998;51.024;13.828;2023-09-18T12:50:37;3.73;;;3.13;;
9918;SDS011;4998;51.024;13.828;2023-09-18T12:53:07;6.20;;;3.40;;
9918;SDS011;4998;51.024;13.828;2023-09-18T12:55:35;5.40;;;3.60;;
9918;SDS011;4998;51.024;13.828;2023-09-18T12:58:05;3.60;;;3.40;;
9918;SDS011;4998;51.024;13.828;2023-09-18T13:00:34;4.33;;;3.77;;
9918;SDS011;4998;51.024;13.828;2023-09-18T13:03:01;3.83;;;3.53;;
9918;SDS011;4998;51.024;13.828;2023-09-18T13:05:29;3.80;;;3.50;;
9918;SDS011;4998;51.024;13.828;2023-09-18T13:08:01;3.60;;;3.30;;
9918;SDS011;4998;51.024;13.828;2023-09-18T13:10:29;3.70;;;3.40;;
9918;SDS011;4998;51.024;13.828;2023-09-18T13:13:08;3.77;;;3.47;;
9918;SDS011;4998;51.024;13.828;2023-09-18T13:15:42;3.80;;;3.50;;
9918;SDS011;4998;51.024;13.828;2023-09-18T13:18:11;3.70;;;3.40;;
9918;SDS011;4998;51.024;13.828;2023-09-18T13:20:38;3.60;;;3.40;;
9918;SDS011;4998;51.024;13.828;2023-09-18T13:23:06;5.27;;;3.70;;
9918;SDS011;4998;51.024;13.828;2023-09-18T13:25:35;3.70;;;3.40;;
9918;SDS011;4998;51.024;13.828;2023-09-18T13:28:05;4.03;;;3.33;;
9918;SDS011;4998;51.024;13.828;2023-09-18T13:30:35;3.80;;;3.40;;
9918;SDS011;4998;51.024;13.828;2023-09-18T13:33:05;3.80;;;3.50;;
9918;SDS011;4998;51.024;13.828;2023-09-18T13:35:34;3.43;;;3.23;;
9918;SDS011;4998;51.024;13.828;2023-09-18T13:38:03;4.43;;;3.13;;
9918;SDS011;4998;51.024;13.828;2023-09-18T13:40:31;3.73;;;3.33;;
9918;SDS011;4998;51.024;13.828;2023-09-18T13:42:59;3.67;;;3.10;;
9918;SDS011;4998;51.024;13.828;2023-09-18T13:45:27;3.10;;;2.90;;
9918;SDS011;4998;51.024;13.828;2023-09-18T13:53:05;3.40;;;3.10;;
9918;SDS011;4998;51.024;13.828;2023-09-18T13:55:43;3.30;;;3.10;;
9918;SDS011;4998;51.024;13.828;2023-09-18T14:08:29;17.83;;;16.13;;
9918;SDS011;4998;51.024;13.828;2023-09-18T14:10:56;57.03;;;48.37;;
9918;SDS011;4998;51.024;13.828;2023-09-18T14:13:25;24.57;;;22.07;;
9918;SDS011;4998;51.024;13.828;2023-09-18T14:15:54;15.50;;;10.60;;
9918;SDS011;4998;51.024;13.828;2023-09-18T14:18:28;6.70;;;6.10;;
9918;SDS011;4998;51.024;13.828;2023-09-18T14:20:57;6.50;;;5.63;;
9918;SDS011;4998;51.024;13.828;2023-09-18T14:23:31;4.43;;;4.03;;
9918;SDS011;4998;51.024;13.828;2023-09-18T14:25:59;3.80;;;3.50;;
9918;SDS011;4998;51.024;13.828;2023-09-18T14:28:28;26.23;;;23.47;;
9918;SDS011;4998;51.024;13.828;2023-09-18T14:31:02;29.90;;;26.63;;
9918;SDS011;4998;51.024;13.828;2023-09-18T14:33:33;22.70;;;18.97;;
9918;SDS011;4998;51.024;13.828;2023-09-18T14:36:05;13.90;;;9.60;;
9918;SDS011;4998;51.024;13.828;2023-09-18T14:38:34;5.90;;;5.30;;
9918;SDS011;4998;51.024;13.828;2023-09-18T14:41:08;6.27;;;3.90;;
9918;SDS011;4998;51.024;13.828;2023-09-18T14:43:36;4.90;;;3.70;;
9918;SDS011;4998;51.024;13.828;2023-09-18T14:46:05;4.00;;;3.30;;
9918;SDS011;4998;51.024;13.828;2023-09-18T14:48:34;3.70;;;3.30;;
9918;SDS011;4998;51.024;13.828;2023-09-18T14:51:02;3.40;;;3.10;;
9918;SDS011;4998;51.024;13.828;2023-09-18T14:53:30;5.67;;;3.60;;
9918;SDS011;4998;51.024;13.828;2023-09-18T14:56:00;6.20;;;3.57;;
9918;SDS011;4998;51.024;13.828;2023-09-18T14:58:29;3.17;;;2.87;;
9918;SDS011;4998;51.024;13.828;2023-09-18T15:00:58;2.70;;;2.50;;
9918;SDS011;4998;51.024;13.828;2023-09-18T15:03:26;4.73;;;2.60;;
9918;SDS011;4998;51.024;13.828;2023-09-18T15:05:55;4.40;;;2.63;;
9918;SDS011;4998;51.024;13.828;2023-09-18T15:08:22;5.27;;;2.97;;
9918;SDS011;4998;51.024;13.828;2023-09-18T15:10:54;5.10;;;3.73;;
9918;SDS011;4998;51.024;13.828;2023-09-18T15:13:24;9.40;;;5.73;;
9918;SDS011;4998;51.024;13.828;2023-09-18T15:15:52;7.03;;;3.13;;
9918;SDS011;4998;51.024;13.828;2023-09-18T15:18:25;2.77;;;2.50;;
9918;SDS011;4998;51.024;13.828;2023-09-18T15:20:53;3.83;;;2.50;;
9918;SDS011;4998;51.024;13.828;2023-09-18T15:23:21;4.40;;;2.67;;
9918;SDS011;4998;51.024;13.828;2023-09-18T15:25:49;8.87;;;2.57;;
9918;SDS011;4998;51.024;13.828;2023-09-18T15:28:18;4.00;;;1.83;;
9918;SDS011;4998;51.024;13.828;2023-09-18T15:30:49;3.37;;;2.10;;
9918;SDS011;4998;51.024;13.828;2023-09-18T15:33:17;5.23;;;2.10;;